Terminal Aerodrome Forecast
Issued by NWS Jackson, KY

Home | Current Version | Previous Version | Text Only | Print | Product List | Glossary On
Versions: 1 2 3 4 5 6 7 8 9 10 11 12
000
FTUS43 KJKL 221723
TAFJKL
TAF
KJKL 221723Z 2218/2318 23005KT P6SM SCT035
     FM221900 24008KT P6SM VCSH BKN040
     FM222200 24008KT 2SM -TSRA BR BKN025CB
     FM230100 VRB04KT 4SM SHRA BR VCTS OVC040CB
     FM230700 VRB03KT P6SM OVC015
     FM231200 VRB03KT P6SM BKN004
     FM231400 VRB03KT P6SM BKN012
     FM231600 VRB03KT P6SM SCT030=

USA.gov is the U.S. government's official web portal to all federal, state and local government web resources and services.